Sensation — C6FM8 — position and weather

sailwx.info

Track history (hours):
 
Tides and Currents Weather Stations Pressure Air Temp Water Temp Dewpoint Dewpoint Depression Visibility Wind Speed Wind Dir Waves Ship Positions

Sensation

Last reported at 2019-Apr-23 01:44 UTC. Time now 2019-Apr-25 12:30 UTC.
Position N 26°16' W 079°15'.

Type: Ship. MMSI: 309697000.

Date/timePositionNaut miles runAvg speedWind from/ knotsBaromVisibWave heightAir tempDewpointWater temp
2019-Apr-23 01:44N 26°16' W 079°15'313.9
2019-Apr-23 01:30N 26°16' W 079°19'714.9
2019-Apr-23 01:00N 26°11' W 079°25'816.2
2019-Apr-23 00:30N 26°05' W 079°31'816.6
2019-Apr-23 00:00N 25°58' W 079°37'816.6
2019-Apr-22 23:30N 25°52' W 079°43'815.3
2019-Apr-22 23:01N 25°50' W 079°51'815.2
2019-Apr-22 22:31N 25°48' W 079°59'713.0
2019-Apr-22 22:00N 25°46' W 080°06'4 8.9
2019-Apr-22 21:30N 25°47' W 080°11'1 1.2
2019-Apr-22 21:00N 25°47' W 080°10'0 0.0
2019-Apr-22 20:30N 25°47' W 080°10'0 0.0
2019-Apr-22 20:00N 25°47' W 080°10'0 0.0
2019-Apr-22 19:30N 25°47' W 080°10'0 0.0
2019-Apr-22 19:00N 25°47' W 080°10'0 0.0
2019-Apr-22 18:30N 25°47' W 080°10'0 0.0
2019-Apr-22 18:00N 25°47' W 080°10'0 0.0
2019-Apr-22 17:30N 25°47' W 080°10'0 0.0
2019-Apr-22 17:00N 25°47' W 080°10'0 0.0
2019-Apr-22 16:29N 25°47' W 080°10'0 0.0
2019-Apr-22 15:59N 25°47' W 080°10'0 0.0
2019-Apr-22 15:29N 25°47' W 080°10'0 0.0
2019-Apr-22 14:59N 25°47' W 080°10'0 0.0
2019-Apr-22 14:29N 25°47' W 080°10'0 0.0
2019-Apr-22 13:59N 25°47' W 080°10'0 0.0
2019-Apr-22 13:29N 25°47' W 080°10'0 0.0
2019-Apr-22 12:59N 25°47' W 080°10'0 0.0
2019-Apr-22 12:29N 25°47' W 080°10'0 0.0
2019-Apr-22 11:59N 25°47' W 080°10'0 0.0
2019-Apr-22 11:29N 25°47' W 080°10'0 0.0
2019-Apr-22 10:59N 25°47' W 080°10'0 0.0
2019-Apr-22 10:31N 25°47' W 080°10'0 0.3
2019-Apr-22 10:01N 25°47' W 080°10'4 8.4
2019-Apr-22 09:31N 25°46' W 080°05'4 8.9
2019-Apr-22 09:01N 25°46' W 080°01'5 9.7
2019-Apr-22 08:31N 25°42' W 079°57'510.8
2019-Apr-22 08:00N 25°40' W 079°51'611.9
2019-Apr-22 07:30N 25°39' W 079°45'4 7.9
2019-Apr-22 07:00N 25°37' W 079°41'510.2
2019-Apr-22 06:30N 25°32' W 079°40'510.8
2019-Apr-22 06:00N 25°26' W 079°39'4 7.3
2019-Apr-22 05:30N 25°26' W 079°35'5 9.2
2019-Apr-22 05:00N 25°30' W 079°36'5 9.6
2019-Apr-22 04:31N 25°35' W 079°35'5 9.7
2019-Apr-22 04:01N 25°40' W 079°35'5 9.7
2019-Apr-22 03:31N 25°45' W 079°35'5 9.9
2019-Apr-22 03:01N 25°50' W 079°34'510.2
2019-Apr-22 02:31N 25°55' W 079°33'610.7
2019-Apr-22 02:00N 26°00' W 079°31'510.6
2019-Apr-22 01:31N 26°04' W 079°28'611.4
2019-Apr-22 00:59N 26°09' W 079°23'711.9
2019-Apr-22 00:22N 26°14' W 079°17'  
2019-Apr-19 01:10N 26°16' W 079°06'211.9
2019-Apr-19 00:58N 26°16' W 079°08'612.1
2019-Apr-19 00:30N 26°16' W 079°15'611.8
2019-Apr-19 00:01N 26°15' W 079°21'713.7
2019-Apr-18 23:30N 26°09' W 079°26'714.3
2019-Apr-18 23:00N 26°04' W 079°31'714.5
2019-Apr-18 22:30N 25°58' W 079°36'714.6
2019-Apr-18 22:00N 25°53' W 079°42'713.4
2019-Apr-18 21:30N 25°50' W 079°49'612.4
2019-Apr-18 21:00N 25°49' W 079°56'612.6
2019-Apr-18 20:30N 25°48' W 080°03'510.6
2019-Apr-18 20:00N 25°46' W 080°08'2 5.0
2019-Apr-18 19:30N 25°47' W 080°10'0 0.0
2019-Apr-18 19:00N 25°47' W 080°10'0 0.0
2019-Apr-18 18:30N 25°47' W 080°10'0 0.0
2019-Apr-18 18:00N 25°47' W 080°10'0 0.0
2019-Apr-18 17:30N 25°47' W 080°10'0 0.0
2019-Apr-18 17:00N 25°47' W 080°10'0 0.0
2019-Apr-18 16:30N 25°47' W 080°10'0 0.0
2019-Apr-18 16:00N 25°47' W 080°10'0 0.0
2019-Apr-18 15:30N 25°47' W 080°10'0 0.0
2019-Apr-18 15:00N 25°47' W 080°10'0 0.0
2019-Apr-18 14:30N 25°47' W 080°10'0 0.0
2019-Apr-18 14:00N 25°47' W 080°10'0 0.0
2019-Apr-18 13:30N 25°47' W 080°10'0 0.0
2019-Apr-18 13:00N 25°47' W 080°10'0 0.0
2019-Apr-18 12:30N 25°47' W 080°10'0 0.0
2019-Apr-18 12:00N 25°47' W 080°10'0 0.0
2019-Apr-18 11:30N 25°47' W 080°10'0 0.0
2019-Apr-18 11:00N 25°47' W 080°10'0 0.0
2019-Apr-18 10:31N 25°47' W 080°10'1 1.7
2019-Apr-18 10:00N 25°47' W 080°11'2 4.7
2019-Apr-18 09:30N 25°46' W 080°09'5 9.2
2019-Apr-18 09:00N 25°47' W 080°03'510.5
2019-Apr-18 08:30N 25°47' W 079°58'611.2
2019-Apr-18 08:00N 25°47' W 079°51'611.5
2019-Apr-18 07:30N 25°48' W 079°45'510.8
2019-Apr-18 07:00N 25°51' W 079°40'510.4
2019-Apr-18 06:30N 25°54' W 079°36'510.4
2019-Apr-18 05:59N 25°59' W 079°32'610.0
2019-Apr-18 05:22N 26°05' W 079°30'410.6
2019-Apr-18 05:00N 26°08' W 079°27'611.1
2019-Apr-18 04:30N 26°12' W 079°23'610.9
2019-Apr-18 04:00N 26°15' W 079°18'713.6
2019-Apr-18 03:29N 26°15' W 079°10'  
2019-Apr-14 00:25N 26°15' W 079°11'715.6
2019-Apr-14 00:00N 26°14' W 079°19'715.0
2019-Apr-13 23:30N 26°10' W 079°25'815.2
2019-Apr-13 23:00N 26°04' W 079°31'816.5
2019-Apr-13 22:30N 25°58' W 079°37'816.6
2019-Apr-13 22:00N 25°52' W 079°43'816.0
2019-Apr-13 21:30N 25°50' W 079°52'816.0
2019-Apr-13 21:00N 25°47' W 080°00'613.0
2019-Apr-13 20:31N 25°45' W 080°07'3 5.3
2019-Apr-13 19:58N 25°47' W 080°10'0 0.0
2019-Apr-13 19:28N 25°47' W 080°10'0 0.0
2019-Apr-13 18:58N 25°47' W 080°10'0 0.0
2019-Apr-13 18:27N 25°47' W 080°10'0 0.0
2019-Apr-13 17:57N 25°47' W 080°10'0 0.0
2019-Apr-13 17:30N 25°47' W 080°10'0 0.0
2019-Apr-13 16:57N 25°47' W 080°10'0 0.0
2019-Apr-13 16:30N 25°47' W 080°10'0 0.0
2019-Apr-13 16:00N 25°47' W 080°10'0 0.0
2019-Apr-13 15:30N 25°47' W 080°10'0 0.0
2019-Apr-13 15:00N 25°47' W 080°10'0 0.0
2019-Apr-13 14:30N 25°47' W 080°10'0 0.0
2019-Apr-13 14:00N 25°47' W 080°10'0 0.0
2019-Apr-13 13:30N 25°47' W 080°10'0 0.0
2019-Apr-13 13:00N 25°47' W 080°10'0 0.0
2019-Apr-13 12:30N 25°47' W 080°10'0 0.0
2019-Apr-13 12:00N 25°47' W 080°10'0 0.0
2019-Apr-13 11:30N 25°47' W 080°10'0 0.0
2019-Apr-13 11:00N 25°47' W 080°10'0 0.0
2019-Apr-13 10:30N 25°47' W 080°10'0 0.0
2019-Apr-13 10:00N 25°47' W 080°10'0 0.0
2019-Apr-13 09:30N 25°47' W 080°10'0 0.7
2019-Apr-13 09:00N 25°47' W 080°10'4 8.1
2019-Apr-13 08:30N 25°46' W 080°06'510.2
2019-Apr-13 08:00N 25°46' W 080°00'815.8
2019-Apr-13 07:30N 25°39' W 079°56'917.3
2019-Apr-13 07:00N 25°30' W 079°56'918.1
2019-Apr-13 06:30N 25°21' W 079°56'1020.2
2019-Apr-13 06:00N 25°11' W 079°59'1621.8
2019-Apr-13 05:18N 24°56' W 080°02'  
Track history (hours):
 
Tides and Currents Weather Stations Pressure Air Temp Water Temp Dewpoint Dewpoint Depression Visibility Wind Speed Wind Dir Waves Ship Positions

Sensation

Last reported at 2019-Apr-23 01:44 UTC. Time now 2019-Apr-25 12:30 UTC.
Position N 26°16' W 079°15'.

Type: Ship. MMSI: 309697000.

Date/timePositionNaut miles runAvg speedWind from/ knotsBaromVisibWave heightAir tempDewpointWater temp
2019-Apr-23 01:44N 26°16' W 079°15'313.9
2019-Apr-23 01:30N 26°16' W 079°19'714.9
2019-Apr-23 01:00N 26°11' W 079°25'816.2
2019-Apr-23 00:30N 26°05' W 079°31'816.6
2019-Apr-23 00:00N 25°58' W 079°37'816.6
2019-Apr-22 23:30N 25°52' W 079°43'815.3
2019-Apr-22 23:01N 25°50' W 079°51'815.2
2019-Apr-22 22:31N 25°48' W 079°59'713.0
2019-Apr-22 22:00N 25°46' W 080°06'4 8.9
2019-Apr-22 21:30N 25°47' W 080°11'1 1.2
2019-Apr-22 21:00N 25°47' W 080°10'0 0.0
2019-Apr-22 20:30N 25°47' W 080°10'0 0.0
2019-Apr-22 20:00N 25°47' W 080°10'0 0.0
2019-Apr-22 19:30N 25°47' W 080°10'0 0.0
2019-Apr-22 19:00N 25°47' W 080°10'0 0.0
2019-Apr-22 18:30N 25°47' W 080°10'0 0.0
2019-Apr-22 18:00N 25°47' W 080°10'0 0.0
2019-Apr-22 17:30N 25°47' W 080°10'0 0.0
2019-Apr-22 17:00N 25°47' W 080°10'0 0.0
2019-Apr-22 16:29N 25°47' W 080°10'0 0.0
2019-Apr-22 15:59N 25°47' W 080°10'0 0.0
2019-Apr-22 15:29N 25°47' W 080°10'0 0.0
2019-Apr-22 14:59N 25°47' W 080°10'0 0.0
2019-Apr-22 14:29N 25°47' W 080°10'0 0.0
2019-Apr-22 13:59N 25°47' W 080°10'0 0.0
2019-Apr-22 13:29N 25°47' W 080°10'0 0.0
2019-Apr-22 12:59N 25°47' W 080°10'0 0.0
2019-Apr-22 12:29N 25°47' W 080°10'0 0.0
2019-Apr-22 11:59N 25°47' W 080°10'0 0.0
2019-Apr-22 11:29N 25°47' W 080°10'0 0.0
2019-Apr-22 10:59N 25°47' W 080°10'0 0.0
2019-Apr-22 10:31N 25°47' W 080°10'0 0.3
2019-Apr-22 10:01N 25°47' W 080°10'4 8.4
2019-Apr-22 09:31N 25°46' W 080°05'4 8.9
2019-Apr-22 09:01N 25°46' W 080°01'5 9.7
2019-Apr-22 08:31N 25°42' W 079°57'510.8
2019-Apr-22 08:00N 25°40' W 079°51'611.9
2019-Apr-22 07:30N 25°39' W 079°45'4 7.9
2019-Apr-22 07:00N 25°37' W 079°41'510.2
2019-Apr-22 06:30N 25°32' W 079°40'510.8
2019-Apr-22 06:00N 25°26' W 079°39'4 7.3
2019-Apr-22 05:30N 25°26' W 079°35'5 9.2
2019-Apr-22 05:00N 25°30' W 079°36'5 9.6
2019-Apr-22 04:31N 25°35' W 079°35'5 9.7
2019-Apr-22 04:01N 25°40' W 079°35'5 9.7
2019-Apr-22 03:31N 25°45' W 079°35'5 9.9
2019-Apr-22 03:01N 25°50' W 079°34'510.2
2019-Apr-22 02:31N 25°55' W 079°33'610.7
2019-Apr-22 02:00N 26°00' W 079°31'510.6
2019-Apr-22 01:31N 26°04' W 079°28'611.4
2019-Apr-22 00:59N 26°09' W 079°23'711.9
2019-Apr-22 00:22N 26°14' W 079°17'  
2019-Apr-19 01:10N 26°16' W 079°06'211.9
2019-Apr-19 00:58N 26°16' W 079°08'612.1
2019-Apr-19 00:30N 26°16' W 079°15'611.8
2019-Apr-19 00:01N 26°15' W 079°21'713.7
2019-Apr-18 23:30N 26°09' W 079°26'714.3
2019-Apr-18 23:00N 26°04' W 079°31'714.5
2019-Apr-18 22:30N 25°58' W 079°36'714.6
2019-Apr-18 22:00N 25°53' W 079°42'713.4
2019-Apr-18 21:30N 25°50' W 079°49'612.4
2019-Apr-18 21:00N 25°49' W 079°56'612.6
2019-Apr-18 20:30N 25°48' W 080°03'510.6
2019-Apr-18 20:00N 25°46' W 080°08'2 5.0
2019-Apr-18 19:30N 25°47' W 080°10'0 0.0
2019-Apr-18 19:00N 25°47' W 080°10'0 0.0
2019-Apr-18 18:30N 25°47' W 080°10'0 0.0
2019-Apr-18 18:00N 25°47' W 080°10'0 0.0
2019-Apr-18 17:30N 25°47' W 080°10'0 0.0
2019-Apr-18 17:00N 25°47' W 080°10'0 0.0
2019-Apr-18 16:30N 25°47' W 080°10'0 0.0
2019-Apr-18 16:00N 25°47' W 080°10'0 0.0
2019-Apr-18 15:30N 25°47' W 080°10'0 0.0
2019-Apr-18 15:00N 25°47' W 080°10'0 0.0
2019-Apr-18 14:30N 25°47' W 080°10'0 0.0
2019-Apr-18 14:00N 25°47' W 080°10'0 0.0
2019-Apr-18 13:30N 25°47' W 080°10'0 0.0
2019-Apr-18 13:00N 25°47' W 080°10'0 0.0
2019-Apr-18 12:30N 25°47' W 080°10'0 0.0
2019-Apr-18 12:00N 25°47' W 080°10'0 0.0
2019-Apr-18 11:30N 25°47' W 080°10'0 0.0
2019-Apr-18 11:00N 25°47' W 080°10'0 0.0
2019-Apr-18 10:31N 25°47' W 080°10'1 1.7
2019-Apr-18 10:00N 25°47' W 080°11'2 4.7
2019-Apr-18 09:30N 25°46' W 080°09'5 9.2
2019-Apr-18 09:00N 25°47' W 080°03'510.5
2019-Apr-18 08:30N 25°47' W 079°58'611.2
2019-Apr-18 08:00N 25°47' W 079°51'611.5
2019-Apr-18 07:30N 25°48' W 079°45'510.8
2019-Apr-18 07:00N 25°51' W 079°40'510.4
2019-Apr-18 06:30N 25°54' W 079°36'510.4
2019-Apr-18 05:59N 25°59' W 079°32'610.0
2019-Apr-18 05:22N 26°05' W 079°30'410.6
2019-Apr-18 05:00N 26°08' W 079°27'611.1
2019-Apr-18 04:30N 26°12' W 079°23'610.9
2019-Apr-18 04:00N 26°15' W 079°18'713.6
2019-Apr-18 03:29N 26°15' W 079°10'  
2019-Apr-14 00:25N 26°15' W 079°11'715.6
2019-Apr-14 00:00N 26°14' W 079°19'715.0
2019-Apr-13 23:30N 26°10' W 079°25'815.2
2019-Apr-13 23:00N 26°04' W 079°31'816.5
2019-Apr-13 22:30N 25°58' W 079°37'816.6
2019-Apr-13 22:00N 25°52' W 079°43'816.0
2019-Apr-13 21:30N 25°50' W 079°52'816.0
2019-Apr-13 21:00N 25°47' W 080°00'613.0
2019-Apr-13 20:31N 25°45' W 080°07'3 5.3
2019-Apr-13 19:58N 25°47' W 080°10'0 0.0
2019-Apr-13 19:28N 25°47' W 080°10'0 0.0
2019-Apr-13 18:58N 25°47' W 080°10'0 0.0
2019-Apr-13 18:27N 25°47' W 080°10'0 0.0
2019-Apr-13 17:57N 25°47' W 080°10'0 0.0
2019-Apr-13 17:30N 25°47' W 080°10'0 0.0
2019-Apr-13 16:57N 25°47' W 080°10'0 0.0
2019-Apr-13 16:30N 25°47' W 080°10'0 0.0
2019-Apr-13 16:00N 25°47' W 080°10'0 0.0
2019-Apr-13 15:30N 25°47' W 080°10'0 0.0
2019-Apr-13 15:00N 25°47' W 080°10'0 0.0
2019-Apr-13 14:30N 25°47' W 080°10'0 0.0
2019-Apr-13 14:00N 25°47' W 080°10'0 0.0
2019-Apr-13 13:30N 25°47' W 080°10'0 0.0
2019-Apr-13 13:00N 25°47' W 080°10'0 0.0
2019-Apr-13 12:30N 25°47' W 080°10'0 0.0
2019-Apr-13 12:00N 25°47' W 080°10'0 0.0
2019-Apr-13 11:30N 25°47' W 080°10'0 0.0
2019-Apr-13 11:00N 25°47' W 080°10'0 0.0
2019-Apr-13 10:30N 25°47' W 080°10'0 0.0
2019-Apr-13 10:00N 25°47' W 080°10'0 0.0
2019-Apr-13 09:30N 25°47' W 080°10'0 0.7
2019-Apr-13 09:00N 25°47' W 080°10'4 8.1
2019-Apr-13 08:30N 25°46' W 080°06'510.2
2019-Apr-13 08:00N 25°46' W 080°00'815.8
2019-Apr-13 07:30N 25°39' W 079°56'917.3
2019-Apr-13 07:00N 25°30' W 079°56'918.1
2019-Apr-13 06:30N 25°21' W 079°56'1020.2
2019-Apr-13 06:00N 25°11' W 079°59'1621.8
2019-Apr-13 05:18N 24°56' W 080°02'  

Dump ship's entire track history